West Park, Florida
Current Conditions -  °F | °C
As of 6:53 PM on Friday 28 Nov 2014 (Local Time) from KHWO Reporting Station
Few Clouds Few Clouds  
Wind Chill: 63°   Ceiling: Unl
Heat Index: 63°   Visibility: 10mi
Dew Point: 51°   Wind: 9mph
Humidity: 65%   Direction: 350°N
Pressure: 30.2"   Gusts: NA
Location:  25.9895°N, 80.2144°W
Report Text: KHWO 282353Z 35008KT 10SM FEW050 17/11 A3020 RMK AO2 SLP225 T01720106 10222 20172 51008
Loading
Personal Weather Stations






























Interactive Weather Map New forecast layout! Learn more

10-Day Weather Forecast

Advertisements
Track Severe Weather on mobile